Time;durP1;ratioP1;P1;durP2;ratioP2;P2;SDS_P1;SDS_P2;PMS_P1;PMS_P2;Temp;Humidity;BMP_temperature;BMP_pressure;BME280_temperature;BME280_humidity;BME280_pressure;Samples;Min_cycle;Max_cycle;Signal;HPM_P1;HPM_P2
2024/01/25 00:00:19;;;;;;;9.20;8.50;;;20.40;50.20;;;;;;5063941;28;20475;-69
2024/01/25 00:02:46;;;;;;;10.20;9.70;;;20.40;50.10;;;;;;5061677;28;20499;-69
2024/01/25 00:05:14;;;;;;;8.77;8.03;;;20.50;50.30;;;;;;5062209;28;20475;-69
2024/01/25 00:07:47;;;;;;;10.07;9.37;;;20.40;50.20;;;;;;5065292;28;20481;-69
2024/01/25 00:10:14;;;;;;;7.90;7.60;;;20.50;50.30;;;;;;5064408;28;20478;-69
2024/01/25 00:12:41;;;;;;;8.80;8.50;;;20.40;50.40;;;;;;5061705;28;20817;-69
2024/01/25 00:15:09;;;;;;;9.70;9.27;;;20.40;50.40;;;;;;5061905;28;20483;-69
2024/01/25 00:17:36;;;;;;;9.57;9.07;;;20.40;50.50;;;;;;5061844;28;20478;-69
2024/01/25 00:20:03;;;;;;;8.40;8.10;;;20.40;50.50;;;;;;5062050;28;20856;-69
2024/01/25 00:22:31;;;;;;;8.90;8.60;;;20.40;50.60;;;;;;5062378;28;20443;-69
2024/01/25 00:24:59;;;;;;;7.50;7.20;;;20.30;50.60;;;;;;5061711;28;20472;-69
2024/01/25 00:27:26;;;;;;;7.70;7.40;;;20.40;50.60;;;;;;5063560;28;20447;-69
2024/01/25 00:29:53;;;;;;;7.40;7.07;;;20.30;50.50;;;;;;5064694;28;20561;-69
2024/01/25 00:32:20;;;;;;;8.60;8.20;;;20.30;50.60;;;;;;5063701;28;20859;-69
2024/01/25 00:34:47;;;;;;;8.20;7.80;;;20.30;50.60;;;;;;5061413;28;20476;-69
2024/01/25 00:37:15;;;;;;;8.03;7.63;;;20.30;50.60;;;;;;5061667;28;20472;-69
2024/01/25 00:39:44;;;;;;;8.63;8.23;;;20.30;50.70;;;;;;5064671;28;20871;-69
2024/01/25 00:42:14;;;;;;;7.90;7.53;;;20.30;50.70;;;;;;5064566;28;20530;-69
2024/01/25 00:44:41;;;;;;;8.80;8.43;;;20.30;50.70;;;;;;5053571;28;20942;-69
2024/01/25 00:47:09;;;;;;;7.70;7.40;;;20.30;50.80;;;;;;5061173;28;20468;-69
2024/01/25 00:49:37;;;;;;;8.60;8.10;;;20.30;50.80;;;;;;5064189;28;20891;-69
2024/01/25 00:52:04;;;;;;;8.17;7.80;;;20.30;50.90;;;;;;5064386;28;20474;-69
2024/01/25 00:54:32;;;;;;;8.30;7.90;;;20.30;50.90;;;;;;5061590;28;20491;-69
2024/01/25 00:57:01;;;;;;;8.00;7.60;;;20.20;50.80;;;;;;5060956;28;20479;-69
2024/01/25 00:59:28;;;;;;;8.70;7.90;;;20.20;50.80;;;;;;5057484;28;20484;-69
2024/01/25 01:01:59;;;;;;;7.73;7.43;;;20.20;50.80;;;;;;5063813;28;20440;-69
2024/01/25 01:04:26;;;;;;;8.00;7.60;;;20.30;50.90;;;;;;5062252;28;20451;-69
2024/01/25 01:06:53;;;;;;;8.83;8.53;;;20.20;50.80;;;;;;5060728;28;20498;-69
2024/01/25 01:09:20;;;;;;;7.80;7.50;;;20.20;50.90;;;;;;5056513;28;21015;-69
2024/01/25 01:11:48;;;;;;;9.03;8.50;;;20.20;50.90;;;;;;5064004;28;20898;-69
2024/01/25 01:14:16;;;;;;;8.70;8.30;;;20.30;51.00;;;;;;5062902;28;20455;-69
2024/01/25 01:16:43;;;;;;;8.30;7.77;;;20.20;50.90;;;;;;5060691;28;20494;-69
2024/01/25 01:19:10;;;;;;;8.50;8.13;;;20.20;51.00;;;;;;5055919;28;20472;-69
2024/01/25 01:21:36;;;;;;;7.70;7.40;;;20.20;51.00;;;;;;5063369;28;20475;-70
2024/01/25 01:24:04;;;;;;;8.50;8.00;;;20.20;51.00;;;;;;5063748;28;21055;-69
2024/01/25 01:26:31;;;;;;;8.13;7.73;;;20.20;51.10;;;;;;5061243;28;20470;-69
2024/01/25 01:28:57;;;;;;;7.33;7.13;;;20.20;51.10;;;;;;5057688;28;20500;-69
2024/01/25 01:31:26;;;;;;;8.13;7.93;;;20.20;51.10;;;;;;5059901;28;20468;-69
2024/01/25 01:33:53;;;;;;;7.30;7.10;;;20.20;51.10;;;;;;5063538;28;20483;-69
2024/01/25 01:36:19;;;;;;;8.00;7.70;;;20.20;51.10;;;;;;5062695;28;20946;-69
2024/01/25 01:38:46;;;;;;;9.10;8.60;;;20.20;51.10;;;;;;5059491;28;20864;-69
2024/01/25 01:41:13;;;;;;;8.03;7.70;;;20.20;51.10;;;;;;5056731;28;20473;-69
2024/01/25 01:43:40;;;;;;;9.03;8.37;;;20.20;51.10;;;;;;5052120;28;20499;-69
2024/01/25 01:46:11;;;;;;;8.90;8.40;;;20.10;51.00;;;;;;5060324;28;20848;-69
2024/01/25 01:48:40;;;;;;;8.03;7.73;;;20.10;51.10;;;;;;5063537;28;20443;-69
2024/01/25 01:51:09;;;;;;;7.80;7.40;;;20.20;51.20;;;;;;5058727;28;20435;-69
2024/01/25 01:53:37;;;;;;;8.20;7.80;;;20.10;51.10;;;;;;5060193;28;20557;-69
2024/01/25 01:56:05;;;;;;;8.60;8.10;;;20.10;51.10;;;;;;5060334;28;20471;-68
2024/01/25 01:58:32;;;;;;;8.20;7.60;;;20.10;51.10;;;;;;5065028;28;20447;-69
2024/01/25 02:01:00;;;;;;;7.40;7.10;;;20.10;51.20;;;;;;5059865;28;20511;-69
2024/01/25 02:03:27;;;;;;;8.23;7.83;;;20.10;51.30;;;;;;5061487;28;20879;-69
2024/01/25 02:05:56;;;;;;;7.37;7.13;;;20.10;51.30;;;;;;5063501;28;20855;-69
2024/01/25 02:08:23;;;;;;;8.30;7.90;;;20.10;51.30;;;;;;5060827;28;20463;-69
2024/01/25 02:10:49;;;;;;;8.20;7.80;;;20.10;51.30;;;;;;5059711;28;20507;-69
2024/01/25 02:13:16;;;;;;;7.57;7.27;;;20.10;51.40;;;;;;5059622;28;20617;-69
2024/01/25 02:15:43;;;;;;;7.57;7.37;;;20.10;51.40;;;;;;5059791;28;20470;-69
2024/01/25 02:18:11;;;;;;;7.60;7.30;;;20.00;51.40;;;;;;5051206;28;20866;-69
2024/01/25 02:20:37;;;;;;;7.47;7.07;;;20.10;51.50;;;;;;5060038;28;20858;-69
2024/01/25 02:23:06;;;;;;;8.37;7.77;;;20.00;51.40;;;;;;5059560;28;20501;-69
2024/01/25 02:25:33;;;;;;;8.90;8.33;;;20.10;51.50;;;;;;5068658;28;20474;-69
2024/01/25 02:27:59;;;;;;;8.20;7.80;;;20.00;51.40;;;;;;5054291;28;20463;-69
2024/01/25 02:30:26;;;;;;;8.20;7.70;;;20.00;51.50;;;;;;5065609;28;20499;-69
2024/01/25 02:32:53;;;;;;;8.73;8.27;;;20.00;51.50;;;;;;5063658;28;20488;-69
2024/01/25 02:35:20;;;;;;;8.13;7.73;;;20.00;51.50;;;;;;5064194;28;20467;-69
2024/01/25 02:37:47;;;;;;;8.57;8.17;;;20.00;51.50;;;;;;5059707;28;20474;-69
2024/01/25 02:40:16;;;;;;;8.07;7.63;;;20.00;51.50;;;;;;5067025;28;20448;-69
2024/01/25 02:42:43;;;;;;;7.53;7.33;;;20.00;51.50;;;;;;5055360;28;20545;-69
2024/01/25 02:45:10;;;;;;;7.47;7.17;;;20.00;51.60;;;;;;5063605;28;20475;-69
2024/01/25 02:47:37;;;;;;;8.03;7.43;;;20.00;51.50;;;;;;5059237;28;20471;-69
2024/01/25 02:50:05;;;;;;;8.20;7.80;;;20.00;51.50;;;;;;5066660;28;21082;-69
2024/01/25 02:52:31;;;;;;;8.70;7.90;;;20.00;51.50;;;;;;5064446;28;20477;-70
2024/01/25 02:54:58;;;;;;;8.33;7.53;;;20.00;51.40;;;;;;5063386;28;20468;-69
2024/01/25 02:57:27;;;;;;;8.03;7.63;;;20.00;51.50;;;;;;5064175;28;20475;-69
2024/01/25 02:59:53;;;;;;;9.00;8.50;;;20.00;51.50;;;;;;5066632;28;20463;-69
2024/01/25 03:02:20;;;;;;;8.70;8.10;;;20.00;51.50;;;;;;5065973;28;20463;-70
2024/01/25 03:04:48;;;;;;;8.37;7.97;;;20.00;52.10;;;;;;5067137;28;20485;-70
2024/01/25 03:07:15;;;;;;;8.30;7.90;;;20.00;51.60;;;;;;5059264;28;20439;-69
2024/01/25 03:09:42;;;;;;;7.77;7.37;;;20.00;51.50;;;;;;5071219;28;20499;-69
2024/01/25 03:12:09;;;;;;;7.43;7.13;;;20.00;51.50;;;;;;5063175;28;20474;-69
2024/01/25 03:14:37;;;;;;;8.90;8.10;;;20.00;51.60;;;;;;5065326;28;20505;-69
2024/01/25 03:17:04;;;;;;;7.87;7.30;;;19.90;51.40;;;;;;5060409;28;20467;-69
2024/01/25 03:19:31;;;;;;;7.30;7.00;;;19.90;51.50;;;;;;5064689;28;20459;-69
2024/01/25 03:21:58;;;;;;;7.90;7.50;;;20.00;51.50;;;;;;5066168;28;20482;-68
2024/01/25 03:24:25;;;;;;;10.60;10.00;;;20.00;51.50;;;;;;5066107;28;20495;-69
2024/01/25 03:26:52;;;;;;;10.70;10.20;;;20.00;51.40;;;;;;5065651;28;20626;-69
2024/01/25 03:29:18;;;;;;;7.63;7.30;;;19.90;51.40;;;;;;5062855;28;20515;-69
2024/01/25 03:31:47;;;;;;;8.83;8.43;;;20.00;51.40;;;;;;5066160;28;20467;-69
2024/01/25 03:34:14;;;;;;;8.10;7.60;;;19.90;51.40;;;;;;5065984;28;20527;-69
2024/01/25 03:36:41;;;;;;;7.97;7.67;;;19.90;51.40;;;;;;5058217;28;20467;-70
2024/01/25 03:39:08;;;;;;;8.60;8.10;;;19.90;51.40;;;;;;5061915;28;20467;-69
2024/01/25 03:41:35;;;;;;;7.70;7.40;;;19.90;51.40;;;;;;5062501;28;20472;-69
2024/01/25 03:44:02;;;;;;;8.23;7.83;;;19.90;51.40;;;;;;5062196;28;20468;-69
2024/01/25 03:46:28;;;;;;;7.70;7.40;;;19.90;51.50;;;;;;5056885;28;20931;-69
2024/01/25 03:48:57;;;;;;;8.10;7.80;;;19.90;51.40;;;;;;5062487;28;20861;-69
2024/01/25 03:51:24;;;;;;;8.50;8.00;;;19.90;51.50;;;;;;5062723;28;20512;-69
2024/01/25 03:53:52;;;;;;;8.03;7.63;;;19.90;51.50;;;;;;5065500;28;20463;-69
2024/01/25 03:56:19;;;;;;;8.57;7.90;;;19.90;52.10;;;;;;5062537;28;20532;-70
2024/01/25 03:58:46;;;;;;;8.10;7.70;;;19.90;51.50;;;;;;5057784;28;20470;-68
2024/01/25 04:01:13;;;;;;;8.57;8.23;;;19.90;51.50;;;;;;5065608;28;20432;-69
2024/01/25 04:03:41;;;;;;;9.43;8.80;;;19.90;51.60;;;;;;5062477;28;20460;-68
2024/01/25 04:06:09;;;;;;;8.40;8.10;;;19.90;51.50;;;;;;5062740;28;20517;-69
2024/01/25 04:08:36;;;;;;;8.20;7.90;;;19.90;51.60;;;;;;5065567;28;20985;-69
2024/01/25 04:11:03;;;;;;;8.47;8.20;;;19.90;51.60;;;;;;5065216;28;20558;-69
2024/01/25 04:13:29;;;;;;;9.50;9.10;;;19.90;51.60;;;;;;5063575;28;20487;-69
2024/01/25 04:15:56;;;;;;;9.07;8.67;;;19.90;51.60;;;;;;5061716;28;20471;-69
2024/01/25 04:18:23;;;;;;;9.40;8.90;;;19.90;51.60;;;;;;5062295;28;20468;-69
2024/01/25 04:20:50;;;;;;;8.60;8.30;;;19.90;51.50;;;;;;5065329;28;20463;-69
2024/01/25 04:23:19;;;;;;;9.07;8.60;;;19.90;51.60;;;;;;5064964;28;20534;-69
2024/01/25 04:25:46;;;;;;;8.57;8.30;;;19.90;51.60;;;;;;5064543;28;20467;-69
2024/01/25 04:28:12;;;;;;;9.13;8.53;;;19.90;51.60;;;;;;5065068;28;20862;-69
2024/01/25 04:30:39;;;;;;;8.27;8.07;;;19.90;51.70;;;;;;5062131;28;20510;-69
2024/01/25 04:33:06;;;;;;;8.83;8.53;;;19.80;51.60;;;;;;5061368;28;20484;-69
2024/01/25 04:35:33;;;;;;;9.07;8.77;;;19.80;51.60;;;;;;5054062;28;20443;-70
2024/01/25 04:38:00;;;;;;;9.17;8.67;;;19.90;51.60;;;;;;5061520;28;20475;-69
2024/01/25 04:40:28;;;;;;;9.30;8.90;;;19.80;51.60;;;;;;5062093;28;20495;-69
2024/01/25 04:42:55;;;;;;;8.20;7.83;;;19.80;51.70;;;;;;5064351;28;20996;-69
2024/01/25 04:45:22;;;;;;;8.90;8.40;;;19.80;51.60;;;;;;5057031;28;20842;-69
2024/01/25 04:47:49;;;;;;;8.83;8.43;;;19.80;51.60;;;;;;5061379;28;20468;-69
2024/01/25 04:50:16;;;;;;;8.80;8.50;;;19.80;51.60;;;;;;5067648;28;20617;-69
2024/01/25 04:52:43;;;;;;;8.47;7.97;;;19.80;51.70;;;;;;5061208;28;20480;-69
2024/01/25 04:55:10;;;;;;;8.90;8.50;;;19.80;51.70;;;;;;5053136;28;20475;-69
2024/01/25 04:57:38;;;;;;;8.97;8.57;;;19.80;51.60;;;;;;5062303;28;20447;-69
2024/01/25 05:00:06;;;;;;;8.77;8.40;;;19.80;51.70;;;;;;5060950;28;20490;-69
2024/01/25 05:02:33;;;;;;;9.40;9.00;;;19.80;51.60;;;;;;5062327;28;20506;-69
2024/01/25 05:05:00;;;;;;;9.07;8.47;;;19.80;51.70;;;;;;5057488;28;20464;-69
2024/01/25 05:07:27;;;;;;;8.70;8.40;;;19.80;51.70;;;;;;5063456;28;20463;-69
2024/01/25 05:09:54;;;;;;;8.77;8.33;;;19.80;51.70;;;;;;5060655;28;20498;-69
2024/01/25 05:12:21;;;;;;;9.67;9.10;;;19.80;51.60;;;;;;5068720;28;20467;-69
2024/01/25 05:14:49;;;;;;;9.37;8.87;;;19.80;51.70;;;;;;5057618;28;20497;-68
2024/01/25 05:17:16;;;;;;;8.40;8.10;;;19.80;51.70;;;;;;5058815;28;20464;-69
2024/01/25 05:19:43;;;;;;;9.40;8.80;;;19.80;51.80;;;;;;5063201;28;20479;-69
2024/01/25 05:22:09;;;;;;;9.63;9.23;;;19.80;52.00;;;;;;5063842;28;20478;-69
2024/01/25 05:24:36;;;;;;;9.40;9.03;;;19.80;52.00;;;;;;5050570;28;20465;-69
2024/01/25 05:27:03;;;;;;;10.60;10.00;;;19.80;52.10;;;;;;5063889;28;20451;-68
2024/01/25 05:29:30;;;;;;;9.70;9.30;;;19.80;52.20;;;;;;5062697;28;20473;-68
2024/01/25 05:31:58;;;;;;;9.77;9.37;;;19.80;52.30;;;;;;5060223;28;20475;-68
2024/01/25 05:34:25;;;;;;;13.03;11.83;;;19.80;52.50;;;;;;5054283;28;20489;-68
2024/01/25 05:36:52;;;;;;;14.50;12.67;;;19.90;54.70;;;;;;5061792;28;20474;-68
2024/01/25 05:39:21;;;;;;;31.20;14.43;;;19.90;61.00;;;;;;5060289;28;20472;-68
2024/01/25 05:41:48;;;;;;;26.80;16.43;;;19.90;69.30;;;;;;5063330;28;20790;-68
2024/01/25 05:44:15;;;;;;;31.23;11.23;;;20.00;74.60;;;;;;5053702;28;20492;-68
2024/01/25 05:46:41;;;;;;;19.13;10.50;;;20.00;78.10;;;;;;5061538;28;20498;-67
2024/01/25 05:49:10;;;;;;;14.10;10.83;;;20.00;77.30;;;;;;5063450;28;20471;-66
2024/01/25 05:51:37;;;;;;;20.37;10.93;;;20.00;75.20;;;;;;5061429;28;20533;-66
2024/01/25 05:54:04;;;;;;;18.90;12.53;;;20.00;74.10;;;;;;5059711;28;20484;-66
2024/01/25 05:56:31;;;;;;;17.80;12.80;;;19.90;73.10;;;;;;5060759;28;20440;-65
2024/01/25 05:58:57;;;;;;;15.17;11.73;;;19.90;72.50;;;;;;5063280;28;20526;-67
2024/01/25 06:01:24;;;;;;;18.07;13.53;;;19.90;71.30;;;;;;5062922;28;20988;-66
2024/01/25 06:03:51;;;;;;;15.50;10.87;;;19.90;71.10;;;;;;5059845;28;20894;-67
2024/01/25 06:06:20;;;;;;;14.77;9.60;;;19.90;70.30;;;;;;5059898;28;20876;-67
2024/01/25 06:08:47;;;;;;;15.80;10.27;;;19.90;69.80;;;;;;5062867;28;20664;-67
2024/01/25 06:11:14;;;;;;;20.57;12.07;;;19.80;69.10;;;;;;5063175;28;20889;-66
2024/01/25 06:13:40;;;;;;;19.97;12.53;;;19.90;68.30;;;;;;5060711;28;20494;-67
2024/01/25 06:16:07;;;;;;;12.17;9.90;;;19.80;67.50;;;;;;5059585;28;20468;-67
2024/01/25 06:18:34;;;;;;;19.10;9.97;;;19.80;66.80;;;;;;5060985;28;20506;-66
2024/01/25 06:21:01;;;;;;;20.83;11.27;;;19.80;66.30;;;;;;5063055;28;20474;-65
2024/01/25 06:23:29;;;;;;;13.67;12.00;;;19.80;65.50;;;;;;5062246;28;20491;-66
2024/01/25 06:25:56;;;;;;;11.73;10.73;;;19.80;65.00;;;;;;5059520;28;20479;-66
2024/01/25 06:28:24;;;;;;;17.83;10.40;;;19.70;64.20;;;;;;5059536;28;20483;-67
2024/01/25 06:30:51;;;;;;;14.27;10.37;;;19.80;63.80;;;;;;5051250;28;20480;-66
2024/01/25 06:33:18;;;;;;;14.43;10.73;;;19.70;63.20;;;;;;5059271;28;20484;-66
2024/01/25 06:35:45;;;;;;;12.30;9.80;;;19.70;62.70;;;;;;5062011;28;20823;-64
2024/01/25 06:38:12;;;;;;;11.00;9.90;;;19.70;62.20;;;;;;5062835;28;20463;-65
2024/01/25 06:40:40;;;;;;;11.13;10.23;;;19.70;61.80;;;;;;5060985;28;20474;-66
2024/01/25 06:43:07;;;;;;;11.53;10.53;;;19.70;61.40;;;;;;5059136;28;20492;-66
2024/01/25 06:45:34;;;;;;;15.63;13.13;;;19.70;60.80;;;;;;5060440;28;20578;-66
2024/01/25 06:48:00;;;;;;;10.33;9.60;;;19.70;60.30;;;;;;5062787;28;20474;-65
2024/01/25 06:50:27;;;;;;;11.80;10.60;;;19.70;60.00;;;;;;5062464;28;20559;-64
2024/01/25 06:52:55;;;;;;;11.87;10.87;;;19.70;59.70;;;;;;5063060;28;20491;-64
2024/01/25 06:55:22;;;;;;;10.60;9.67;;;19.70;59.40;;;;;;5062682;28;20443;-66
2024/01/25 06:57:50;;;;;;;10.70;9.80;;;19.70;59.20;;;;;;5059524;28;20882;-66
2024/01/25 07:00:18;;;;;;;12.27;11.03;;;19.70;58.90;;;;;;5059124;28;20468;-67
2024/01/25 07:02:45;;;;;;;11.53;10.47;;;19.70;58.70;;;;;;5061434;28;20812;-66
2024/01/25 07:05:12;;;;;;;12.40;11.33;;;19.70;58.50;;;;;;5062579;28;20934;-65
2024/01/25 07:07:39;;;;;;;11.70;10.83;;;19.70;58.30;;;;;;5060805;28;20471;-66
2024/01/25 07:10:07;;;;;;;10.47;9.77;;;19.70;58.10;;;;;;5059108;28;20870;-64
2024/01/25 07:12:34;;;;;;;11.73;10.83;;;19.70;57.90;;;;;;5060391;28;20628;-63
2024/01/25 07:15:02;;;;;;;11.47;10.37;;;19.70;57.70;;;;;;5066151;28;20474;-64
2024/01/25 07:17:29;;;;;;;11.37;10.30;;;19.70;57.50;;;;;;5065888;28;20449;-66
2024/01/25 07:19:56;;;;;;;10.77;9.73;;;19.60;57.30;;;;;;5062676;28;20474;-65
2024/01/25 07:22:23;;;;;;;12.23;11.30;;;19.60;57.30;;;;;;5062617;28;20493;-66
2024/01/25 07:24:50;;;;;;;9.90;9.00;;;19.60;57.10;;;;;;5065618;28;20810;-67
2024/01/25 07:27:17;;;;;;;11.87;10.70;;;19.60;57.00;;;;;;5066032;28;20855;-66
2024/01/25 07:29:45;;;;;;;11.23;10.50;;;19.60;56.90;;;;;;5063672;28;20470;-66
2024/01/25 07:32:14;;;;;;;13.23;10.07;;;19.60;56.70;;;;;;5062304;28;20569;-66
2024/01/25 07:34:41;;;;;;;11.97;10.47;;;19.50;56.50;;;;;;5064146;28;20440;-65
2024/01/25 07:37:07;;;;;;;10.13;9.40;;;19.60;56.40;;;;;;5065860;28;20471;-65
2024/01/25 07:39:34;;;;;;;11.67;10.77;;;19.60;56.40;;;;;;5064938;28;20490;-64
2024/01/25 07:42:01;;;;;;;9.67;9.07;;;19.60;56.20;;;;;;5062206;28;20475;-65
2024/01/25 07:44:28;;;;;;;10.23;9.40;;;19.50;56.00;;;;;;5085212;23;21010;-67
2024/01/25 07:46:55;;;;;;;10.80;10.13;;;19.50;55.90;;;;;;5034244;28;20472;-67
2024/01/25 07:49:23;;;;;;;10.80;10.20;;;19.50;55.70;;;;;;5042223;28;20469;-66
2024/01/25 07:51:50;;;;;;;9.90;9.30;;;19.50;55.60;;;;;;5044846;28;20512;-66
2024/01/25 07:54:17;;;;;;;12.57;11.50;;;19.50;55.50;;;;;;5030879;28;20504;-66
2024/01/25 07:56:44;;;;;;;11.90;11.23;;;19.50;55.50;;;;;;5023597;28;20449;-67
2024/01/25 07:59:11;;;;;;;12.37;11.57;;;19.50;55.40;;;;;;5022236;28;20481;-67
2024/01/25 08:01:38;;;;;;;10.93;9.83;;;19.50;55.30;;;;;;5023118;28;20469;-67
2024/01/25 08:04:05;;;;;;;10.97;10.03;;;19.50;55.10;;;;;;5025537;28;20531;-66
2024/01/25 08:06:33;;;;;;;10.73;10.07;;;19.50;55.00;;;;;;5024993;28;20473;-66
2024/01/25 08:09:00;;;;;;;11.67;10.77;;;19.50;54.90;;;;;;5022061;28;20442;-66
2024/01/25 08:11:27;;;;;;;10.80;10.30;;;19.50;54.80;;;;;;5021854;28;20510;-67
2024/01/25 08:13:54;;;;;;;11.53;10.83;;;19.50;54.70;;;;;;5024989;28;20960;-66
2024/01/25 08:16:21;;;;;;;11.20;10.50;;;19.50;54.60;;;;;;5025196;28;20473;-66
2024/01/25 08:18:48;;;;;;;11.37;10.43;;;19.50;54.50;;;;;;5022650;28;21006;-66
2024/01/25 08:21:15;;;;;;;10.90;10.30;;;19.50;54.40;;;;;;5021715;28;20525;-66
2024/01/25 08:23:44;;;;;;;10.77;9.97;;;19.50;54.30;;;;;;5023156;28;20462;-67
2024/01/25 08:26:12;;;;;;;11.73;11.03;;;19.50;54.20;;;;;;5025268;28;20503;-66
2024/01/25 08:28:40;;;;;;;11.33;10.63;;;19.50;54.70;;;;;;5023731;28;20448;-66
2024/01/25 08:31:07;;;;;;;12.10;11.13;;;19.50;54.10;;;;;;5021511;28;21060;-66
2024/01/25 08:33:34;;;;;;;9.83;9.43;;;19.50;54.00;;;;;;5021938;28;20973;-66
2024/01/25 08:36:01;;;;;;;10.37;9.83;;;19.50;54.00;;;;;;5024985;28;20880;-66
2024/01/25 08:38:28;;;;;;;9.77;9.27;;;19.50;53.90;;;;;;5024917;28;20484;-66
2024/01/25 08:40:56;;;;;;;10.50;9.97;;;19.50;53.90;;;;;;5021437;28;20473;-66
2024/01/25 08:43:23;;;;;;;11.37;10.40;;;19.50;53.80;;;;;;5021189;28;20498;-66
2024/01/25 08:45:49;;;;;;;10.20;9.70;;;19.50;53.80;;;;;;5023757;28;20874;-66
2024/01/25 08:48:16;;;;;;;10.70;10.07;;;19.50;53.70;;;;;;5024679;28;20496;-66
2024/01/25 08:50:44;;;;;;;11.83;10.83;;;19.40;53.50;;;;;;5022807;28;20473;-66
2024/01/25 08:53:11;;;;;;;11.37;10.67;;;19.40;53.50;;;;;;5021091;28;20524;-67
2024/01/25 08:55:38;;;;;;;10.13;9.63;;;19.40;53.40;;;;;;5022000;28;20828;-66
2024/01/25 08:58:06;;;;;;;10.80;10.30;;;19.40;53.40;;;;;;5024558;28;20516;-66
2024/01/25 09:00:33;;;;;;;9.93;9.53;;;19.40;53.30;;;;;;5023945;28;20441;-67
2024/01/25 09:03:00;;;;;;;10.30;9.50;;;19.40;53.30;;;;;;5020975;28;20965;-66
2024/01/25 09:05:28;;;;;;;9.97;9.40;;;19.40;53.30;;;;;;5020929;28;20496;-67
2024/01/25 09:07:54;;;;;;;9.93;9.37;;;19.40;53.20;;;;;;5023923;28;20467;-66
2024/01/25 09:10:21;;;;;;;10.67;10.07;;;19.40;53.10;;;;;;5024267;28;21137;-66
2024/01/25 09:12:48;;;;;;;14.17;13.30;;;19.40;53.10;;;;;;5021842;28;20511;-66
2024/01/25 09:15:16;;;;;;;10.30;9.50;;;19.40;53.00;;;;;;5020726;28;20489;-66
2024/01/25 09:17:45;;;;;;;10.03;9.63;;;19.30;52.90;;;;;;5022343;28;20481;-66
2024/01/25 09:20:12;;;;;;;10.03;9.53;;;19.40;52.90;;;;;;5024230;28;20453;-66
2024/01/25 09:22:39;;;;;;;9.57;9.17;;;19.40;52.90;;;;;;5022983;28;20473;-67
2024/01/25 09:25:07;;;;;;;9.10;8.63;;;19.40;52.80;;;;;;5020539;28;20477;-66
2024/01/25 09:27:34;;;;;;;11.10;10.50;;;19.40;52.80;;;;;;5020635;28;20457;-66
2024/01/25 09:30:01;;;;;;;10.77;10.23;;;19.40;52.70;;;;;;5023831;28;20863;-66
2024/01/25 09:32:29;;;;;;;9.80;9.47;;;19.40;52.60;;;;;;5023765;28;20501;-66
2024/01/25 09:34:56;;;;;;;9.47;9.10;;;19.40;52.60;;;;;;5020336;28;20469;-66
2024/01/25 09:37:24;;;;;;;10.70;10.10;;;19.40;52.50;;;;;;5020216;28;20450;-66
2024/01/25 09:39:51;;;;;;;11.03;10.43;;;19.40;52.50;;;;;;5022942;28;20482;-66
2024/01/25 09:42:18;;;;;;;9.90;9.37;;;19.40;52.50;;;;;;5023682;28;20499;-66
2024/01/25 09:44:45;;;;;;;10.13;9.77;;;19.40;52.40;;;;;;5021831;28;20508;-66
2024/01/25 09:47:12;;;;;;;10.10;9.70;;;19.40;52.30;;;;;;5020288;28;20945;-66
2024/01/25 09:49:42;;;;;;;11.00;10.40;;;19.40;52.30;;;;;;5020911;28;20481;-66
2024/01/25 09:52:13;;;;;;;10.17;9.80;;;19.40;52.30;;;;;;5023411;28;20535;-65
2024/01/25 09:54:40;;;;;;;10.43;9.97;;;19.40;52.20;;;;;;5022378;28;20461;-66
2024/01/25 09:57:14;;;;;;;9.50;9.10;;;19.40;52.20;;;;;;5020096;28;20470;-66
2024/01/25 09:59:41;;;;;;;11.10;10.60;;;19.40;52.20;;;;;;5021142;28;20721;-66
2024/01/25 10:02:09;;;;;;;10.93;10.17;;;19.40;52.20;;;;;;5023360;28;20473;-66
2024/01/25 10:04:36;;;;;;;10.10;9.70;;;19.40;52.10;;;;;;5022825;28;20465;-66
2024/01/25 10:07:05;;;;;;;10.67;10.17;;;19.40;52.10;;;;;;5019939;28;20477;-65
2024/01/25 10:09:39;;;;;;;10.60;10.20;;;19.40;52.00;;;;;;5019941;28;20469;-66
2024/01/25 10:12:07;;;;;;;11.30;10.70;;;19.40;52.00;;;;;;5012530;28;20500;-65
2024/01/25 10:14:34;;;;;;;10.83;10.33;;;19.40;52.00;;;;;;5019742;28;20504;-65
2024/01/25 10:17:02;;;;;;;10.20;9.80;;;19.30;51.90;;;;;;5012018;28;20473;-66
2024/01/25 10:19:29;;;;;;;11.03;10.33;;;19.30;51.80;;;;;;5019941;28;20825;-66
2024/01/25 10:21:57;;;;;;;11.40;10.80;;;19.30;51.80;;;;;;5022505;28;20872;-65
2024/01/25 10:24:26;;;;;;;9.47;9.17;;;19.30;51.80;;;;;;5023174;28;20540;-65
2024/01/25 10:26:52;;;;;;;10.17;9.77;;;19.30;51.80;;;;;;5020609;28;20886;-65
2024/01/25 10:29:19;;;;;;;10.37;9.97;;;19.30;51.70;;;;;;5019744;28;20474;-66
2024/01/25 10:31:47;;;;;;;9.90;9.50;;;19.30;51.70;;;;;;5021048;28;20513;-66
2024/01/25 10:34:15;;;;;;;9.30;9.00;;;19.30;51.70;;;;;;5022966;28;20469;-66
2024/01/25 10:36:42;;;;;;;10.20;9.57;;;19.30;51.60;;;;;;5022138;28;20878;-66
2024/01/25 10:39:10;;;;;;;9.97;9.57;;;19.30;52.10;;;;;;5019697;28;20593;-66
2024/01/25 10:41:39;;;;;;;10.03;9.53;;;19.30;51.50;;;;;;5019661;28;20445;-65
2024/01/25 10:44:07;;;;;;;9.73;9.03;;;19.30;51.50;;;;;;5022708;28;20499;-65
2024/01/25 10:46:35;;;;;;;9.77;9.47;;;19.30;51.50;;;;;;5023115;28;20772;-65
2024/01/25 10:49:03;;;;;;;10.40;9.80;;;19.30;51.40;;;;;;5014710;28;20442;-65
2024/01/25 10:51:31;;;;;;;9.73;9.33;;;19.30;51.40;;;;;;5023386;28;20508;-66
2024/01/25 10:53:59;;;;;;;9.37;8.97;;;19.30;51.40;;;;;;5026087;28;20493;-66
2024/01/25 10:56:26;;;;;;;10.10;9.70;;;19.30;51.30;;;;;;5026743;28;20482;-66
2024/01/25 10:58:54;;;;;;;10.83;10.43;;;19.30;51.30;;;;;;5024354;28;20502;-65
2024/01/25 11:01:21;;;;;;;10.37;10.00;;;19.30;51.20;;;;;;5023192;28;20481;-66
2024/01/25 11:03:48;;;;;;;9.90;9.23;;;19.30;51.20;;;;;;5024669;28;20786;-65
2024/01/25 11:06:15;;;;;;;10.00;9.53;;;19.30;51.20;;;;;;5026814;28;20541;-65
2024/01/25 11:08:42;;;;;;;9.97;9.37;;;19.30;51.20;;;;;;5025832;28;20479;-66
2024/01/25 11:11:12;;;;;;;9.10;8.80;;;19.30;51.10;;;;;;5023014;28;20450;-65
2024/01/25 11:13:40;;;;;;;9.30;9.00;;;19.30;51.10;;;;;;5023037;28;20522;-66
2024/01/25 11:16:16;;;;;;;11.20;10.70;;;19.30;51.10;;;;;;5026458;28;20443;-66
2024/01/25 11:18:50;;;;;;;10.50;10.10;;;19.30;51.10;;;;;;5025446;28;20448;-65
2024/01/25 11:21:26;;;;;;;10.70;10.10;;;19.30;51.00;;;;;;5022870;28;20458;-66
2024/01/25 11:24:01;;;;;;;10.30;9.80;;;19.30;51.00;;;;;;5024850;28;20504;-66
2024/01/25 11:26:28;;;;;;;10.13;9.73;;;19.30;51.00;;;;;;5026223;28;20836;-66
2024/01/25 11:28:56;;;;;;;10.03;9.60;;;19.30;51.00;;;;;;5023689;28;20456;-66
2024/01/25 11:31:24;;;;;;;9.67;9.27;;;19.30;51.60;;;;;;5022689;28;21006;-66
2024/01/25 11:33:52;;;;;;;10.87;9.97;;;19.30;51.00;;;;;;5024361;28;20509;-66
2024/01/25 11:36:22;;;;;;;9.37;9.17;;;19.30;50.90;;;;;;5026189;28;20483;-65
2024/01/25 11:38:49;;;;;;;10.20;9.70;;;19.30;50.90;;;;;;5024444;28;20476;-65
2024/01/25 11:41:16;;;;;;;9.90;9.60;;;19.30;50.90;;;;;;5022524;28;20481;-65
2024/01/25 11:43:43;;;;;;;9.60;9.20;;;19.30;50.90;;;;;;5022912;28;20825;-65
2024/01/25 11:46:10;;;;;;;10.07;9.67;;;19.30;50.80;;;;;;5025758;28;20552;-66
2024/01/25 11:48:42;;;;;;;9.87;9.57;;;19.30;50.80;;;;;;5025878;28;20473;-65
2024/01/25 11:51:11;;;;;;;10.30;9.57;;;19.30;50.80;;;;;;5014993;28;20945;-66
2024/01/25 11:53:38;;;;;;;10.20;9.80;;;19.30;50.80;;;;;;5022178;28;20485;-66
2024/01/25 11:56:07;;;;;;;9.90;9.50;;;19.30;50.80;;;;;;5014317;28;20438;-65
2024/01/25 11:58:35;;;;;;;9.37;9.10;;;19.30;50.80;;;;;;5021580;28;20442;-66
2024/01/25 12:01:05;;;;;;;10.00;9.60;;;19.30;50.70;;;;;;5025127;28;20936;-65
2024/01/25 12:03:32;;;;;;;9.90;9.50;;;19.30;50.70;;;;;;5025561;28;20511;-66
2024/01/25 12:06:01;;;;;;;11.33;10.83;;;19.30;50.70;;;;;;5022580;28;20478;-66
2024/01/25 12:08:28;;;;;;;10.27;9.97;;;19.30;50.70;;;;;;5022002;28;20532;-66
2024/01/25 12:11:04;;;;;;;11.43;11.03;;;19.30;50.70;;;;;;5024011;28;20481;-65
2024/01/25 12:13:33;;;;;;;10.37;9.97;;;19.30;50.70;;;;;;5025440;28;20495;-65
2024/01/25 12:16:01;;;;;;;10.00;9.70;;;19.30;50.70;;;;;;5022282;28;20452;-65
2024/01/25 12:18:28;;;;;;;10.33;9.93;;;19.30;50.70;;;;;;5021794;28;20494;-65
2024/01/25 12:20:55;;;;;;;10.90;10.40;;;19.30;50.70;;;;;;5023904;28;20478;-66
2024/01/25 12:23:30;;;;;;;10.00;9.60;;;19.30;50.70;;;;;;5024961;28;20462;-66
2024/01/25 12:26:00;;;;;;;10.03;9.63;;;19.30;50.60;;;;;;5022548;28;20964;-65
2024/01/25 12:28:28;;;;;;;9.60;9.20;;;19.30;50.60;;;;;;5021596;28;20477;-65
2024/01/25 12:30:55;;;;;;;9.50;9.00;;;19.30;50.60;;;;;;5023613;28;20535;-66
2024/01/25 12:33:21;;;;;;;9.17;8.80;;;19.30;50.60;;;;;;5024822;28;20524;-66
2024/01/25 12:35:48;;;;;;;10.23;9.93;;;19.30;50.60;;;;;;5023800;28;20473;-66
2024/01/25 12:38:15;;;;;;;9.63;9.33;;;19.30;50.60;;;;;;5021516;28;20508;-66
2024/01/25 12:40:44;;;;;;;9.53;9.13;;;19.30;50.50;;;;;;5021538;28;20484;-66